sensor_id;sensor_type;location;lat;lon;timestamp;pressure;altitude;pressure_sealevel;temperature;humidity
61205;BME280;47068;55.780;37.520;2023-09-19T00:00:47;100442.34;;;13.19;79.62
61205;BME280;47068;55.780;37.520;2023-09-19T00:03:13;100444.34;;;13.17;78.23
61205;BME280;47068;55.780;37.520;2023-09-19T00:05:39;100438.50;;;13.13;79.16
61205;BME280;47068;55.780;37.520;2023-09-19T00:08:05;100431.25;;;13.06;77.74
61205;BME280;47068;55.780;37.520;2023-09-19T00:10:31;100437.59;;;13.05;78.69
61205;BME280;47068;55.780;37.520;2023-09-19T00:12:59;100435.41;;;13.08;78.12
61205;BME280;47068;55.780;37.520;2023-09-19T00:15:26;100441.28;;;13.12;77.79
61205;BME280;47068;55.780;37.520;2023-09-19T00:17:54;100446.63;;;13.12;77.69
61205;BME280;47068;55.780;37.520;2023-09-19T00:20:19;100438.28;;;13.07;77.52
61205;BME280;47068;55.780;37.520;2023-09-19T00:22:46;100439.06;;;13.07;77.54
61205;BME280;47068;55.780;37.520;2023-09-19T00:25:11;100435.88;;;12.95;76.80
61205;BME280;47068;55.780;37.520;2023-09-19T00:27:40;100438.19;;;12.90;77.54
61205;BME280;47068;55.780;37.520;2023-09-19T00:30:07;100437.84;;;12.93;78.02
61205;BME280;47068;55.780;37.520;2023-09-19T00:32:38;100440.06;;;12.98;78.44
61205;BME280;47068;55.780;37.520;2023-09-19T00:35:03;100439.25;;;13.06;78.50
61205;BME280;47068;55.780;37.520;2023-09-19T00:37:28;100437.94;;;13.10;78.23
61205;BME280;47068;55.780;37.520;2023-09-19T00:39:54;100438.28;;;13.07;76.09
61205;BME280;47068;55.780;37.520;2023-09-19T00:42:19;100440.94;;;13.07;75.99
61205;BME280;47068;55.780;37.520;2023-09-19T00:44:47;100441.59;;;13.09;76.70
61205;BME280;47068;55.780;37.520;2023-09-19T00:47:12;100435.94;;;13.12;75.92
61205;BME280;47068;55.780;37.520;2023-09-19T00:49:42;100441.81;;;13.15;76.99
61205;BME280;47068;55.780;37.520;2023-09-19T00:52:08;100446.69;;;13.20;76.58
61205;BME280;47068;55.780;37.520;2023-09-19T00:54:35;100432.31;;;13.21;76.45
61205;BME280;47068;55.780;37.520;2023-09-19T00:57:01;100436.34;;;13.25;76.83
61205;BME280;47068;55.780;37.520;2023-09-19T00:59:26;100438.88;;;13.34;77.50
61205;BME280;47068;55.780;37.520;2023-09-19T01:01:52;100439.38;;;13.38;76.27
61205;BME280;47068;55.780;37.520;2023-09-19T01:04:19;100446.72;;;13.36;76.21
61205;BME280;47068;55.780;37.520;2023-09-19T01:06:45;100432.84;;;13.32;77.59
61205;BME280;47068;55.780;37.520;2023-09-19T01:09:11;100435.69;;;13.31;75.78
61205;BME280;47068;55.780;37.520;2023-09-19T01:11:40;100441.56;;;13.34;75.96
61205;BME280;47068;55.780;37.520;2023-09-19T01:17:00;100431.69;;;13.35;77.03
61205;BME280;47068;55.780;37.520;2023-09-19T01:30:12;100433.31;;;13.28;74.77
61205;BME280;47068;55.780;37.520;2023-09-19T01:32:38;100436.22;;;13.34;74.52
61205;BME280;47068;55.780;37.520;2023-09-19T01:35:06;100439.72;;;13.43;74.00
61205;BME280;47068;55.780;37.520;2023-09-19T01:37:31;100430.69;;;13.36;73.72
61205;BME280;47068;55.780;37.520;2023-09-19T01:47:17;100422.97;;;13.17;73.87
61205;BME280;47068;55.780;37.520;2023-09-19T01:49:47;100417.97;;;13.14;72.62
61205;BME280;47068;55.780;37.520;2023-09-19T01:52:15;100413.59;;;13.13;73.46
61205;BME280;47068;55.780;37.520;2023-09-19T01:54:50;100406.22;;;13.07;73.15
61205;BME280;47068;55.780;37.520;2023-09-19T01:57:17;100411.56;;;13.07;73.53
61205;BME280;47068;55.780;37.520;2023-09-19T01:59:48;100411.56;;;13.07;73.56
61205;BME280;47068;55.780;37.520;2023-09-19T02:02:16;100411.03;;;13.03;73.57
61205;BME280;47068;55.780;37.520;2023-09-19T02:04:42;100403.50;;;12.98;73.77
61205;BME280;47068;55.780;37.520;2023-09-19T02:07:08;100402.81;;;12.96;73.73
61205;BME280;47068;55.780;37.520;2023-09-19T02:09:33;100397.47;;;12.96;74.09
61205;BME280;47068;55.780;37.520;2023-09-19T02:12:00;100400.16;;;12.96;74.01
61205;BME280;47068;55.780;37.520;2023-09-19T02:14:26;100393.13;;;12.95;74.17
61205;BME280;47068;55.780;37.520;2023-09-19T02:16:52;100390.13;;;12.90;74.52
61205;BME280;47068;55.780;37.520;2023-09-19T02:19:17;100385.09;;;12.87;74.41
61205;BME280;47068;55.780;37.520;2023-09-19T02:21:43;100382.38;;;12.79;74.54
61205;BME280;47068;55.780;37.520;2023-09-19T02:24:08;100384.56;;;12.76;75.11
61205;BME280;47068;55.780;37.520;2023-09-19T02:26:35;100390.41;;;12.71;75.36
61205;BME280;47068;55.780;37.520;2023-09-19T02:29:02;100388.91;;;12.77;75.30
61205;BME280;47068;55.780;37.520;2023-09-19T02:31:30;100388.25;;;12.83;75.16
61205;BME280;47068;55.780;37.520;2023-09-19T02:33:55;100388.75;;;12.78;75.01
61205;BME280;47068;55.780;37.520;2023-09-19T02:36:21;100392.72;;;12.74;74.77
61205;BME280;47068;55.780;37.520;2023-09-19T02:38:48;100385.34;;;12.68;76.00
61205;BME280;47068;55.780;37.520;2023-09-19T02:41:14;100386.34;;;12.67;75.92
61205;BME280;47068;55.780;37.520;2023-09-19T02:43:39;100378.19;;;12.69;76.07
61205;BME280;47068;55.780;37.520;2023-09-19T02:46:04;100378.84;;;12.62;76.32
61205;BME280;47068;55.780;37.520;2023-09-19T02:48:30;100388.31;;;12.57;76.98
61205;BME280;47068;55.780;37.520;2023-09-19T02:50:57;100385.47;;;12.58;76.98
61205;BME280;47068;55.780;37.520;2023-09-19T02:53:22;100385.47;;;12.58;76.72
61205;BME280;47068;55.780;37.520;2023-09-19T02:55:49;100378.66;;;12.56;76.72
61205;BME280;47068;55.780;37.520;2023-09-19T02:58:14;100376.63;;;12.50;77.58
61205;BME280;47068;55.780;37.520;2023-09-19T03:00:40;100369.41;;;12.42;77.57
61205;BME280;47068;55.780;37.520;2023-09-19T03:03:07;100376.41;;;12.43;77.90
61205;BME280;47068;55.780;37.520;2023-09-19T03:05:33;100381.13;;;12.49;78.44
61205;BME280;47068;55.780;37.520;2023-09-19T03:07:59;100385.28;;;12.52;78.04
61205;BME280;47068;55.780;37.520;2023-09-19T03:10:26;100386.13;;;12.52;77.86
61205;BME280;47068;55.780;37.520;2023-09-19T03:12:53;100384.97;;;12.55;78.06
61205;BME280;47068;55.780;37.520;2023-09-19T03:15:18;100389.66;;;12.61;78.04
61205;BME280;47068;55.780;37.520;2023-09-19T03:17:44;100384.06;;;12.72;77.70
61205;BME280;47068;55.780;37.520;2023-09-19T03:20:10;100396.06;;;12.76;76.79
61205;BME280;47068;55.780;37.520;2023-09-19T03:22:37;100391.41;;;12.78;77.47
61205;BME280;47068;55.780;37.520;2023-09-19T03:25:03;100394.09;;;12.78;77.39
61205;BME280;47068;55.780;37.520;2023-09-19T03:27:33;100396.06;;;12.76;77.40
61205;BME280;47068;55.780;37.520;2023-09-19T03:29:58;100398.41;;;12.79;78.07
61205;BME280;47068;55.780;37.520;2023-09-19T03:32:24;100392.06;;;12.72;77.27
61205;BME280;47068;55.780;37.520;2023-09-19T03:34:49;100389.03;;;12.67;78.12
61205;BME280;47068;55.780;37.520;2023-09-19T03:37:15;100389.66;;;12.61;78.01
61205;BME280;47068;55.780;37.520;2023-09-19T03:39:40;100389.38;;;12.64;78.33
61205;BME280;47068;55.780;37.520;2023-09-19T03:42:05;100391.34;;;12.62;78.01
61205;BME280;47068;55.780;37.520;2023-09-19T03:44:32;100392.19;;;12.62;78.08
61205;BME280;47068;55.780;37.520;2023-09-19T03:46:57;100395.53;;;12.65;77.78
61205;BME280;47068;55.780;37.520;2023-09-19T03:49:22;100388.81;;;12.60;77.82
61205;BME280;47068;55.780;37.520;2023-09-19T03:51:48;100389.31;;;12.56;78.31
61205;BME280;47068;55.780;37.520;2023-09-19T03:54:13;100388.13;;;12.50;78.48
61205;BME280;47068;55.780;37.520;2023-09-19T03:56:38;100383.78;;;12.49;79.50
61205;BME280;47068;55.780;37.520;2023-09-19T03:59:04;100386.81;;;12.54;78.66
61205;BME280;47068;55.780;37.520;2023-09-19T04:01:30;100386.66;;;12.56;78.70
61205;BME280;47068;55.780;37.520;2023-09-19T04:03:57;100381.81;;;12.59;78.53
61205;BME280;47068;55.780;37.520;2023-09-19T04:06:22;100390.50;;;12.61;78.46
61205;BME280;47068;55.780;37.520;2023-09-19T04:08:48;100381.66;;;12.61;78.51
61205;BME280;47068;55.780;37.520;2023-09-19T04:11:13;100390.81;;;12.58;78.21
61205;BME280;47068;55.780;37.520;2023-09-19T04:13:39;100377.94;;;12.54;78.69
61205;BME280;47068;55.780;37.520;2023-09-19T04:16:04;100374.78;;;12.50;79.44
61205;BME280;47068;55.780;37.520;2023-09-19T04:18:30;100376.63;;;12.50;79.11
61205;BME280;47068;55.780;37.520;2023-09-19T04:21:02;100369.25;;;12.52;79.02
61205;BME280;47068;55.780;37.520;2023-09-19T04:23:29;100366.78;;;12.50;79.06
61205;BME280;47068;55.780;37.520;2023-09-19T04:25:54;100371.47;;;12.56;78.86
61205;BME280;47068;55.780;37.520;2023-09-19T04:28:19;100361.94;;;12.54;79.28
61205;BME280;47068;55.780;37.520;2023-09-19T04:30:45;100360.25;;;12.53;78.90
61205;BME280;47068;55.780;37.520;2023-09-19T04:33:10;100355.91;;;12.52;79.92
61205;BME280;47068;55.780;37.520;2023-09-19T04:35:36;100360.66;;;12.58;79.19
61205;BME280;47068;55.780;37.520;2023-09-19T04:38:04;100354.28;;;12.59;79.08
61205;BME280;47068;55.780;37.520;2023-09-19T04:40:31;100350.28;;;12.55;79.79
61205;BME280;47068;55.780;37.520;2023-09-19T04:42:57;100349.97;;;12.58;79.48
61205;BME280;47068;55.780;37.520;2023-09-19T04:45:23;100356.50;;;12.63;79.63
61205;BME280;47068;55.780;37.520;2023-09-19T04:47:48;100343.78;;;12.66;79.55
61205;BME280;47068;55.780;37.520;2023-09-19T04:50:14;100360.34;;;12.69;79.27
61205;BME280;47068;55.780;37.520;2023-09-19T04:52:43;100352.81;;;12.73;79.38
61205;BME280;47068;55.780;37.520;2023-09-19T04:55:13;100355.50;;;12.73;78.47
61205;BME280;47068;55.780;37.520;2023-09-19T04:57:48;100363.34;;;12.74;78.69
61205;BME280;47068;55.780;37.520;2023-09-19T05:00:14;100362.06;;;12.78;78.68
61205;BME280;47068;55.780;37.520;2023-09-19T05:02:42;100356.38;;;12.81;78.45
61205;BME280;47068;55.780;37.520;2023-09-19T05:05:08;100359.03;;;12.81;78.97
61205;BME280;47068;55.780;37.520;2023-09-19T05:07:33;100349.38;;;12.88;79.81
61205;BME280;47068;55.780;37.520;2023-09-19T05:09:59;100350.56;;;12.86;78.22
61205;BME280;47068;55.780;37.520;2023-09-19T05:12:25;100347.03;;;12.93;79.28
61205;BME280;47068;55.780;37.520;2023-09-19T05:14:51;100344.75;;;12.98;78.60
61205;BME280;47068;55.780;37.520;2023-09-19T05:17:16;100338.75;;;13.05;78.32
61205;BME280;47068;55.780;37.520;2023-09-19T05:19:42;100344.78;;;13.15;78.16
61205;BME280;47068;55.780;37.520;2023-09-19T05:22:08;100338.78;;;13.29;77.50
61205;BME280;47068;55.780;37.520;2023-09-19T05:24:33;100340.81;;;13.43;76.39
61205;BME280;47068;55.780;37.520;2023-09-19T05:26:58;100331.81;;;13.52;76.71
61205;BME280;47068;55.780;37.520;2023-09-19T05:29:24;100339.47;;;13.63;75.95
61205;BME280;47068;55.780;37.520;2023-09-19T05:31:49;100331.44;;;13.88;74.59
61205;BME280;47068;55.780;37.520;2023-09-19T05:34:16;100321.53;;;14.04;73.58
61205;BME280;47068;55.780;37.520;2023-09-19T05:36:41;100333.72;;;14.15;74.38
61205;BME280;47068;55.780;37.520;2023-09-19T05:39:07;100335.69;;;14.29;73.07
61205;BME280;47068;55.780;37.520;2023-09-19T05:41:35;100329.75;;;14.58;71.59
61205;BME280;47068;55.780;37.520;2023-09-19T05:44:02;100339.25;;;15.22;69.84
61205;BME280;47068;55.780;37.520;2023-09-19T05:46:28;100327.44;;;15.77;67.25
61205;BME280;47068;55.780;37.520;2023-09-19T05:48:55;100334.13;;;16.99;63.57
61205;BME280;47068;55.780;37.520;2023-09-19T05:51:22;100318.28;;;18.30;58.53
61205;BME280;47068;55.780;37.520;2023-09-19T05:53:48;100314.16;;;19.55;55.53
61205;BME280;47068;55.780;37.520;2023-09-19T05:56:13;100316.41;;;20.75;51.19
61205;BME280;47068;55.780;37.520;2023-09-19T05:58:39;100310.88;;;22.51;47.15
61205;BME280;47068;55.780;37.520;2023-09-19T06:01:05;100312.56;;;23.94;43.07
61205;BME280;47068;55.780;37.520;2023-09-19T06:03:32;100316.50;;;23.99;41.34
61205;BME280;47068;55.780;37.520;2023-09-19T06:05:57;100319.66;;;24.94;39.95
61205;BME280;47068;55.780;37.520;2023-09-19T06:08:23;100310.44;;;26.62;37.01
61205;BME280;47068;55.780;37.520;2023-09-19T06:10:48;100311.78;;;27.99;35.64
61205;BME280;47068;55.780;37.520;2023-09-19T06:13:14;100308.53;;;29.16;32.59
61205;BME280;47068;55.780;37.520;2023-09-19T06:15:39;100305.28;;;29.70;31.74
61205;BME280;47068;55.780;37.520;2023-09-19T06:18:09;100303.38;;;28.57;31.90
61205;BME280;47068;55.780;37.520;2023-09-19T06:20:47;100295.66;;;26.85;34.85
61205;BME280;47068;55.780;37.520;2023-09-19T06:23:12;100301.66;;;25.21;38.23
61205;BME280;47068;55.780;37.520;2023-09-19T06:25:37;100286.59;;;24.22;40.41
61205;BME280;47068;55.780;37.520;2023-09-19T06:28:04;100293.94;;;23.03;42.61
61205;BME280;47068;55.780;37.520;2023-09-19T06:30:30;100293.41;;;20.98;47.12
61205;BME280;47068;55.780;37.520;2023-09-19T06:32:57;100288.72;;;20.35;49.50
61205;BME280;47068;55.780;37.520;2023-09-19T06:35:23;100290.44;;;20.10;50.36
61205;BME280;47068;55.780;37.520;2023-09-19T06:37:48;100282.16;;;19.65;51.71
61205;BME280;47068;55.780;37.520;2023-09-19T06:40:14;100287.22;;;18.88;53.90
61205;BME280;47068;55.780;37.520;2023-09-19T06:42:44;100298.44;;;18.37;56.08
61205;BME280;47068;55.780;37.520;2023-09-19T06:45:11;100306.47;;;18.72;55.45
61205;BME280;47068;55.780;37.520;2023-09-19T06:47:42;100305.31;;;18.87;55.73
61205;BME280;47068;55.780;37.520;2023-09-19T06:50:08;100310.88;;;18.79;55.60
61205;BME280;47068;55.780;37.520;2023-09-19T06:52:38;100303.75;;;18.59;56.64
61205;BME280;47068;55.780;37.520;2023-09-19T06:55:04;100302.84;;;18.52;56.76
61205;BME280;47068;55.780;37.520;2023-09-19T06:57:30;100301.91;;;18.31;57.19
61205;BME280;47068;55.780;37.520;2023-09-19T06:59:56;100291.88;;;18.19;58.04
61205;BME280;47068;55.780;37.520;2023-09-19T07:02:21;100293.94;;;18.10;58.10
61205;BME280;47068;55.780;37.520;2023-09-19T07:04:47;100302.88;;;18.17;58.21
61205;BME280;47068;55.780;37.520;2023-09-19T07:07:12;100295.97;;;18.08;58.35
61205;BME280;47068;55.780;37.520;2023-09-19T07:09:38;100300.59;;;17.86;58.82
61205;BME280;47068;55.780;37.520;2023-09-19T07:12:04;100295.91;;;17.67;59.46
61205;BME280;47068;55.780;37.520;2023-09-19T07:14:29;100300.19;;;17.19;61.16
61205;BME280;47068;55.780;37.520;2023-09-19T07:16:55;100298.69;;;17.59;60.83
61205;BME280;47068;55.780;37.520;2023-09-19T07:19:20;100294.63;;;18.25;58.77
61205;BME280;47068;55.780;37.520;2023-09-19T07:21:46;100298.88;;;17.79;59.74
61205;BME280;47068;55.780;37.520;2023-09-19T07:24:12;100294.22;;;17.45;61.28
61205;BME280;47068;55.780;37.520;2023-09-19T07:26:38;100296.22;;;17.36;61.45
61205;BME280;47068;55.780;37.520;2023-09-19T07:29:05;100301.53;;;17.08;62.28
61205;BME280;47068;55.780;37.520;2023-09-19T07:31:31;100303.38;;;16.86;63.19
61205;BME280;47068;55.780;37.520;2023-09-19T07:33:57;100302.06;;;16.82;63.74
61205;BME280;47068;55.780;37.520;2023-09-19T07:36:22;100286.06;;;16.74;64.05
61205;BME280;47068;55.780;37.520;2023-09-19T07:38:49;100281.75;;;16.44;65.31
61205;BME280;47068;55.780;37.520;2023-09-19T07:41:14;100287.75;;;16.46;66.12
61205;BME280;47068;55.780;37.520;2023-09-19T07:43:40;100286.56;;;17.20;63.95
61205;BME280;47068;55.780;37.520;2023-09-19T07:46:06;100284.19;;;17.32;63.33
61205;BME280;47068;55.780;37.520;2023-09-19T07:48:35;100286.88;;;17.32;62.78
61205;BME280;47068;55.780;37.520;2023-09-19T07:51:01;100280.22;;;17.28;62.73
61205;BME280;47068;55.780;37.520;2023-09-19T07:53:27;100283.28;;;17.25;62.98
61205;BME280;47068;55.780;37.520;2023-09-19T07:56:01;100282.19;;;17.62;62.05
61205;BME280;47068;55.780;37.520;2023-09-19T07:58:26;100272.63;;;17.59;62.01
61205;BME280;47068;55.780;37.520;2023-09-19T08:00:51;100275.06;;;17.54;62.30
61205;BME280;47068;55.780;37.520;2023-09-19T08:03:16;100276.34;;;17.58;62.10
61205;BME280;47068;55.780;37.520;2023-09-19T08:05:43;100281.59;;;17.45;62.07
61205;BME280;47068;55.780;37.520;2023-09-19T08:08:08;100269.97;;;17.38;63.00
61205;BME280;47068;55.780;37.520;2023-09-19T08:10:34;100271.31;;;17.27;63.69
61205;BME280;47068;55.780;37.520;2023-09-19T08:13:00;100274.56;;;17.02;64.11
61205;BME280;47068;55.780;37.520;2023-09-19T08:15:27;100269.69;;;16.69;65.45
61205;BME280;47068;55.780;37.520;2023-09-19T08:17:52;100267.84;;;16.55;66.40
61205;BME280;47068;55.780;37.520;2023-09-19T08:20:17;100274.22;;;16.54;66.73
61205;BME280;47068;55.780;37.520;2023-09-19T08:22:47;100263.31;;;16.41;67.18
61205;BME280;47068;55.780;37.520;2023-09-19T08:25:13;100263.72;;;16.38;67.54
61205;BME280;47068;55.780;37.520;2023-09-19T08:27:38;100268.53;;;16.28;67.89
61205;BME280;47068;55.780;37.520;2023-09-19T08:30:04;100261.97;;;16.30;67.91
61205;BME280;47068;55.780;37.520;2023-09-19T08:32:29;100251.47;;;16.35;68.53
61205;BME280;47068;55.780;37.520;2023-09-19T08:34:54;100256.56;;;16.45;68.39
61205;BME280;47068;55.780;37.520;2023-09-19T08:37:20;100252.41;;;16.42;68.09
61205;BME280;47068;55.780;37.520;2023-09-19T08:39:46;100248.28;;;16.46;68.32
61205;BME280;47068;55.780;37.520;2023-09-19T08:42:11;100244.06;;;16.52;68.16
61205;BME280;47068;55.780;37.520;2023-09-19T08:44:38;100240.25;;;16.46;67.97
61205;BME280;47068;55.780;37.520;2023-09-19T08:47:09;100234.16;;;16.38;68.34
61205;BME280;47068;55.780;37.520;2023-09-19T08:49:53;100229.34;;;16.33;68.60
61205;BME280;47068;55.780;37.520;2023-09-19T08:52:27;100224.63;;;16.35;68.94
61205;BME280;47068;55.780;37.520;2023-09-19T08:54:55;100233.00;;;16.47;68.80
61205;BME280;47068;55.780;37.520;2023-09-19T08:57:23;100236.25;;;16.57;68.41
61205;BME280;47068;55.780;37.520;2023-09-19T08:59:50;100235.94;;;16.67;68.24
61205;BME280;47068;55.780;37.520;2023-09-19T09:02:16;100241.22;;;16.75;67.87
61205;BME280;47068;55.780;37.520;2023-09-19T09:04:44;100239.00;;;16.78;67.62
61205;BME280;47068;55.780;37.520;2023-09-19T09:07:10;100245.53;;;16.90;67.54
61205;BME280;47068;55.780;37.520;2023-09-19T09:09:37;100240.53;;;17.09;67.10
61205;BME280;47068;55.780;37.520;2023-09-19T09:12:07;100238.66;;;17.30;66.89
61205;BME280;47068;55.780;37.520;2023-09-19T09:14:33;100241.31;;;17.52;66.20
61205;BME280;47068;55.780;37.520;2023-09-19T09:16:59;100234.94;;;17.59;65.13
61205;BME280;47068;55.780;37.520;2023-09-19T09:19:24;100234.19;;;17.65;64.88
61205;BME280;47068;55.780;37.520;2023-09-19T09:21:50;100229.84;;;17.64;64.86
61205;BME280;47068;55.780;37.520;2023-09-19T09:24:26;100237.78;;;17.51;65.15
61205;BME280;47068;55.780;37.520;2023-09-19T09:26:51;100227.38;;;17.42;65.66
61205;BME280;47068;55.780;37.520;2023-09-19T09:29:23;100218.06;;;17.44;66.25
61205;BME280;47068;55.780;37.520;2023-09-19T09:32:16;100219.63;;;17.60;66.31
61205;BME280;47068;55.780;37.520;2023-09-19T09:34:43;100228.50;;;17.82;64.97
61205;BME280;47068;55.780;37.520;2023-09-19T09:37:12;100216.91;;;17.81;64.97
61205;BME280;47068;55.780;37.520;2023-09-19T09:39:40;100216.69;;;17.76;65.34
61205;BME280;47068;55.780;37.520;2023-09-19T09:42:05;100218.53;;;17.76;65.35
61205;BME280;47068;55.780;37.520;2023-09-19T09:44:31;100215.25;;;17.80;65.21
61205;BME280;47068;55.780;37.520;2023-09-19T09:46:57;100221.94;;;17.91;65.17
61205;BME280;47068;55.780;37.520;2023-09-19T09:49:47;100212.81;;;17.92;64.90
61205;BME280;47068;55.780;37.520;2023-09-19T09:52:19;100205.84;;;17.97;64.64
61205;BME280;47068;55.780;37.520;2023-09-19T09:55:02;100216.19;;;18.00;64.60
61205;BME280;47068;55.780;37.520;2023-09-19T09:57:30;100213.78;;;18.19;64.54
61205;BME280;47068;55.780;37.520;2023-09-19T09:59:56;100207.63;;;18.31;63.55
61205;BME280;47068;55.780;37.520;2023-09-19T10:02:41;100206.84;;;18.44;63.76
61205;BME280;47068;55.780;37.520;2023-09-19T10:05:13;100206.25;;;18.55;62.85
61205;BME280;47068;55.780;37.520;2023-09-19T10:07:45;100195.06;;;18.52;63.40
61205;BME280;47068;55.780;37.520;2023-09-19T10:13:03;100186.28;;;18.30;63.70
61205;BME280;47068;55.780;37.520;2023-09-19T10:15:31;100181.25;;;18.20;64.16
61205;BME280;47068;55.780;37.520;2023-09-19T10:17:57;100183.16;;;18.26;64.21
61205;BME280;47068;55.780;37.520;2023-09-19T10:20:26;100178.63;;;18.33;64.14
61205;BME280;47068;55.780;37.520;2023-09-19T10:23:01;100188.19;;;18.42;63.63
61205;BME280;47068;55.780;37.520;2023-09-19T10:25:28;100176.19;;;18.52;63.65
61205;BME280;47068;55.780;37.520;2023-09-19T10:27:54;100169.41;;;18.62;63.49
61205;BME280;47068;55.780;37.520;2023-09-19T10:30:20;100169.22;;;18.70;63.43
61205;BME280;47068;55.780;37.520;2023-09-19T10:32:47;100165.88;;;18.62;63.02
61205;BME280;47068;55.780;37.520;2023-09-19T10:35:19;100169.13;;;18.44;64.09
61205;BME280;47068;55.780;37.520;2023-09-19T10:37:45;100169.53;;;18.47;64.09
61205;BME280;47068;55.780;37.520;2023-09-19T10:40:15;100159.19;;;18.51;64.23
61205;BME280;47068;55.780;37.520;2023-09-19T10:42:41;100149.28;;;18.58;63.94
61205;BME280;47068;55.780;37.520;2023-09-19T10:45:07;100155.94;;;18.69;64.02
61205;BME280;47068;55.780;37.520;2023-09-19T10:47:38;100154.72;;;18.78;63.44
61205;BME280;47068;55.780;37.520;2023-09-19T10:50:03;100153.88;;;18.84;63.48
61205;BME280;47068;55.780;37.520;2023-09-19T10:52:30;100156.56;;;18.84;63.68
61205;BME280;47068;55.780;37.520;2023-09-19T10:54:58;100155.56;;;18.92;63.60
61205;BME280;47068;55.780;37.520;2023-09-19T10:57:26;100156.78;;;18.96;63.30
61205;BME280;47068;55.780;37.520;2023-09-19T11:00:05;100163.25;;;18.95;63.47
61205;BME280;47068;55.780;37.520;2023-09-19T11:05:34;100146.63;;;19.24;62.80
61205;BME280;47068;55.780;37.520;2023-09-19T11:07:59;100140.16;;;19.32;62.54
61205;BME280;47068;55.780;37.520;2023-09-19T11:10:49;100144.50;;;19.46;62.33
61205;BME280;47068;55.780;37.520;2023-09-19T11:26:41;100132.69;;;19.53;62.18
61205;BME280;47068;55.780;37.520;2023-09-19T11:29:25;100138.47;;;19.57;61.86
61205;BME280;47068;55.780;37.520;2023-09-19T11:31:54;100131.63;;;19.61;62.17
61205;BME280;47068;55.780;37.520;2023-09-19T11:37:02;100130.38;;;19.70;62.08
61205;BME280;47068;55.780;37.520;2023-09-19T11:39:29;100129.94;;;19.73;62.00
61205;BME280;47068;55.780;37.520;2023-09-19T11:41:55;100128.28;;;19.72;61.65
61205;BME280;47068;55.780;37.520;2023-09-19T11:46:55;100120.63;;;19.69;61.98
61205;BME280;47068;55.780;37.520;2023-09-19T11:49:30;100111.91;;;19.67;62.21
61205;BME280;47068;55.780;37.520;2023-09-19T11:51:57;100107.72;;;19.71;62.54
61205;BME280;47068;55.780;37.520;2023-09-19T11:54:25;100103.13;;;19.78;62.24
61205;BME280;47068;55.780;37.520;2023-09-19T11:56:54;100100.19;;;19.86;62.22
61205;BME280;47068;55.780;37.520;2023-09-19T11:59:23;100095.16;;;19.96;61.53
61205;BME280;47068;55.780;37.520;2023-09-19T12:01:52;100093.06;;;19.98;61.56
61205;BME280;47068;55.780;37.520;2023-09-19T12:04:40;100090.94;;;20.07;61.71
61205;BME280;47068;55.780;37.520;2023-09-19T12:07:10;100089.25;;;20.13;61.37
61205;BME280;47068;55.780;37.520;2023-09-19T12:09:47;100073.03;;;20.13;61.49
61205;BME280;47068;55.780;37.520;2023-09-19T12:12:24;100077.59;;;20.19;61.37
61205;BME280;47068;55.780;37.520;2023-09-19T12:14:52;100074.41;;;20.28;61.16
61205;BME280;47068;55.780;37.520;2023-09-19T12:17:18;100072.13;;;20.32;61.20
61205;BME280;47068;55.780;37.520;2023-09-19T12:19:53;100070.66;;;20.36;61.17
61205;BME280;47068;55.780;37.520;2023-09-19T12:22:19;100057.09;;;20.42;60.88
61205;BME280;47068;55.780;37.520;2023-09-19T12:24:45;100060.78;;;20.48;60.74
61205;BME280;47068;55.780;37.520;2023-09-19T12:27:11;100050.38;;;20.52;60.86
61205;BME280;47068;55.780;37.520;2023-09-19T12:29:44;100051.22;;;20.52;60.84
61205;BME280;47068;55.780;37.520;2023-09-19T12:32:10;100045.75;;;20.59;60.54
61205;BME280;47068;55.780;37.520;2023-09-19T12:34:36;100038.84;;;20.63;60.67
61205;BME280;47068;55.780;37.520;2023-09-19T12:37:07;100042.09;;;20.71;60.51
61205;BME280;47068;55.780;37.520;2023-09-19T12:40:02;100039.75;;;20.75;60.29
61205;BME280;47068;55.780;37.520;2023-09-19T12:42:39;100043.31;;;20.75;60.21
61205;BME280;47068;55.780;37.520;2023-09-19T12:45:06;100038.97;;;20.74;60.44
61205;BME280;47068;55.780;37.520;2023-09-19T12:47:34;100028.09;;;20.81;60.43
61205;BME280;47068;55.780;37.520;2023-09-19T12:50:10;100028.47;;;20.84;60.09
61205;BME280;47068;55.780;37.520;2023-09-19T12:55:18;100026.16;;;20.88;60.51
61205;BME280;47068;55.780;37.520;2023-09-19T12:57:44;100019.44;;;20.91;60.10
61205;BME280;47068;55.780;37.520;2023-09-19T13:00:19;100025.00;;;20.96;60.33
61205;BME280;47068;55.780;37.520;2023-09-19T13:05:48;100016.59;;;21.04;59.84
61205;BME280;47068;55.780;37.520;2023-09-19T13:08:34;100015.56;;;21.05;60.29
61205;BME280;47068;55.780;37.520;2023-09-19T13:11:12;100012.34;;;21.14;60.09
61205;BME280;47068;55.780;37.520;2023-09-19T13:13:42;100003.56;;;21.19;59.85
61205;BME280;47068;55.780;37.520;2023-09-19T13:16:09;100009.38;;;21.23;60.11
61205;BME280;47068;55.780;37.520;2023-09-19T13:18:44;100008.91;;;21.26;59.72
61205;BME280;47068;55.780;37.520;2023-09-19T13:21:11;99998.09;;;21.26;60.05
61205;BME280;47068;55.780;37.520;2023-09-19T13:23:41;99999.81;;;21.38;59.72
61205;BME280;47068;55.780;37.520;2023-09-19T13:26:07;100004.63;;;21.36;59.80
61205;BME280;47068;55.780;37.520;2023-09-19T13:28:33;99994.88;;;21.35;60.14
61205;BME280;47068;55.780;37.520;2023-09-19T13:30:58;99995.44;;;21.37;59.93
61205;BME280;47068;55.780;37.520;2023-09-19T13:33:24;99991.25;;;21.41;59.82